Time;durP1;ratioP1;P1;durP2;ratioP2;P2;SDS_P1;SDS_P2;PMS_P1;PMS_P2;Temp;Humidity;BMP_temperature;BMP_pressure;BME280_temperature;BME280_humidity;BME280_pressure;Samples;Min_cycle;Max_cycle;Signal;HPM_P1;HPM_P2
2021/03/08 00:01:50;;;;;;;28.50;16.52;;;5.50;67.50;;;;;;5072834;28;20542;-73
2021/03/08 00:04:15;;;;;;;27.60;15.60;;;5.60;67.50;;;;;;5072735;28;20075;-73
2021/03/08 00:06:41;;;;;;;26.33;15.40;;;5.60;67.50;;;;;;5072662;28;20086;-74
2021/03/08 00:09:07;;;;;;;29.23;16.63;;;5.60;67.50;;;;;;5073962;28;20020;-73
2021/03/08 00:11:32;;;;;;;26.00;15.25;;;5.60;67.40;;;;;;5074264;28;20040;-74
2021/03/08 00:13:58;;;;;;;27.00;15.60;;;5.70;67.40;;;;;;5072587;28;20033;-73
2021/03/08 00:16:24;;;;;;;28.00;15.80;;;5.70;67.30;;;;;;5072572;28;20024;-74
2021/03/08 00:18:50;;;;;;;28.35;16.05;;;5.70;67.40;;;;;;5072478;28;20036;-73
2021/03/08 00:21:15;;;;;;;27.30;15.63;;;5.70;67.40;;;;;;5072568;28;20112;-73
2021/03/08 00:23:41;;;;;;;27.75;16.23;;;5.70;67.40;;;;;;5072614;28;20107;-73
2021/03/08 00:26:07;;;;;;;31.10;17.52;;;5.70;67.50;;;;;;5073815;28;20085;-73
2021/03/08 00:28:32;;;;;;;30.05;17.05;;;5.70;67.50;;;;;;5073383;28;20029;-73
2021/03/08 00:30:58;;;;;;;27.83;16.35;;;5.70;67.50;;;;;;5072328;28;20170;-73
2021/03/08 00:33:24;;;;;;;31.05;17.50;;;5.70;67.60;;;;;;5072288;28;20028;-73
2021/03/08 00:35:49;;;;;;;27.55;15.95;;;5.70;67.60;;;;;;5072205;28;20028;-73
2021/03/08 00:38:15;;;;;;;26.73;16.08;;;5.70;67.60;;;;;;5072140;28;20134;-73
2021/03/08 00:40:40;;;;;;;25.90;14.93;;;5.70;67.70;;;;;;5072175;28;20060;-73
2021/03/08 00:43:06;;;;;;;26.65;15.27;;;5.70;67.70;;;;;;5072087;28;20426;-73
2021/03/08 00:45:32;;;;;;;28.30;16.40;;;5.70;67.70;;;;;;5072023;28;20025;-73
2021/03/08 00:47:58;;;;;;;28.20;16.38;;;5.70;67.70;;;;;;5072090;28;20028;-73
2021/03/08 00:50:28;;;;;;;27.20;15.13;;;5.70;67.70;;;;;;5072010;28;20033;-73
2021/03/08 00:52:55;;;;;;;28.88;15.73;;;5.70;67.80;;;;;;5073786;28;20032;-73
2021/03/08 00:55:21;;;;;;;31.10;15.82;;;5.70;67.80;;;;;;5073260;28;20024;-73
2021/03/08 00:57:48;;;;;;;27.00;15.50;;;5.70;67.90;;;;;;5071903;28;20503;-73
2021/03/08 01:00:17;;;;;;;26.45;15.63;;;5.70;68.60;;;;;;5073135;28;20040;-73
2021/03/08 01:02:42;;;;;;;23.50;14.77;;;5.70;68.00;;;;;;5071346;28;20020;-74
2021/03/08 01:05:09;;;;;;;29.73;16.13;;;5.70;68.00;;;;;;5071802;28;20024;-73
2021/03/08 01:07:35;;;;;;;25.10;14.90;;;5.70;68.00;;;;;;5071661;28;20417;-74
2021/03/08 01:10:06;;;;;;;33.47;16.73;;;5.70;68.00;;;;;;5073154;28;20024;-73
2021/03/08 01:12:32;;;;;;;27.15;15.73;;;5.70;68.00;;;;;;5072818;28;20399;-73
2021/03/08 01:14:57;;;;;;;29.60;17.02;;;5.70;68.10;;;;;;5072814;28;20052;-73
2021/03/08 01:17:23;;;;;;;30.10;16.75;;;5.70;68.20;;;;;;5072852;28;20025;-74
2021/03/08 01:19:49;;;;;;;28.25;15.55;;;5.70;68.20;;;;;;5072794;28;20476;-73
2021/03/08 01:22:14;;;;;;;27.42;16.40;;;5.60;68.20;;;;;;5072764;28;20060;-73
2021/03/08 01:24:40;;;;;;;27.90;15.32;;;5.70;68.20;;;;;;5072164;28;20055;-73
2021/03/08 01:27:06;;;;;;;25.63;15.63;;;5.70;68.20;;;;;;5071474;28;20414;-73
2021/03/08 01:29:32;;;;;;;30.70;16.80;;;5.80;68.20;;;;;;5071756;28;20111;-73
2021/03/08 01:31:57;;;;;;;29.52;16.60;;;5.70;68.10;;;;;;5072707;28;20477;-73
2021/03/08 01:34:23;;;;;;;29.15;16.38;;;5.80;68.20;;;;;;5071600;28;20029;-73
2021/03/08 01:36:48;;;;;;;26.27;14.82;;;5.80;68.10;;;;;;5071427;28;20028;-74
2021/03/08 01:39:14;;;;;;;26.50;15.25;;;5.80;68.10;;;;;;5071385;28;20032;-74
2021/03/08 01:41:40;;;;;;;25.83;15.32;;;5.80;68.10;;;;;;5073184;28;20062;-74
2021/03/08 01:44:06;;;;;;;27.98;15.93;;;5.80;68.10;;;;;;5075549;28;20028;-73
2021/03/08 01:46:31;;;;;;;28.15;16.10;;;5.80;68.10;;;;;;5076789;28;20426;-73
2021/03/08 01:48:57;;;;;;;31.02;18.60;;;5.80;68.10;;;;;;5076777;28;20025;-73
2021/03/08 01:51:23;;;;;;;27.73;16.45;;;5.80;68.10;;;;;;5075361;28;20029;-74
2021/03/08 01:53:50;;;;;;;30.55;16.38;;;5.80;68.10;;;;;;5076565;28;20106;-73
2021/03/08 01:56:16;;;;;;;33.95;16.85;;;5.80;68.20;;;;;;5075317;28;20025;-73
2021/03/08 01:58:42;;;;;;;31.42;16.83;;;5.70;68.20;;;;;;5076891;28;20123;-74
2021/03/08 02:01:07;;;;;;;28.48;17.05;;;5.70;68.30;;;;;;5076485;28;20113;-73
2021/03/08 02:03:33;;;;;;;28.10;16.08;;;5.80;68.30;;;;;;5074867;28;20045;-73
2021/03/08 02:05:59;;;;;;;33.38;18.23;;;5.70;68.20;;;;;;5075094;28;20028;-73
2021/03/08 02:08:26;;;;;;;31.25;17.08;;;5.70;68.30;;;;;;5076202;28;20031;-73
2021/03/08 02:10:51;;;;;;;30.20;17.15;;;5.70;68.40;;;;;;5076142;28;20050;-73
2021/03/08 02:13:38;;;;;;;31.45;17.70;;;5.70;69.10;;;;;;5074886;28;20174;-73
2021/03/08 02:16:27;;;;;;;34.47;18.30;;;5.70;68.50;;;;;;5074920;28;20487;-73
2021/03/08 02:19:23;;;;;;;33.97;18.58;;;5.60;68.50;;;;;;5076189;28;20039;-74
2021/03/08 02:22:26;;;;;;;32.20;18.45;;;5.60;68.50;;;;;;5074684;28;20476;-73
2021/03/08 02:24:59;;;;;;;34.83;17.85;;;5.60;68.60;;;;;;5074877;28;20035;-74
2021/03/08 02:27:52;;;;;;;34.10;18.33;;;5.60;68.60;;;;;;5075947;28;20147;-73
2021/03/08 02:30:39;;;;;;;31.65;17.95;;;5.50;68.70;;;;;;5074597;28;20028;-73
2021/03/08 02:33:08;;;;;;;36.60;18.95;;;5.50;68.80;;;;;;5075870;28;20107;-73
2021/03/08 02:35:41;;;;;;;31.73;17.52;;;5.50;68.80;;;;;;5074572;28;20050;-74
2021/03/08 02:38:10;;;;;;;31.83;17.63;;;5.50;68.80;;;;;;5075862;28;20480;-73
2021/03/08 02:40:48;;;;;;;39.38;20.65;;;5.60;68.90;;;;;;5075815;28;20271;-73
2021/03/08 02:43:34;;;;;;;35.25;18.20;;;5.60;68.80;;;;;;5075625;28;20029;-73
2021/03/08 02:46:05;;;;;;;32.15;17.48;;;5.60;68.80;;;;;;5075596;28;20053;-73
2021/03/08 02:48:32;;;;;;;31.30;16.73;;;5.70;68.90;;;;;;5074402;28;20074;-73
2021/03/08 02:51:02;;;;;;;29.67;17.45;;;5.60;68.80;;;;;;5075536;28;20478;-73
2021/03/08 02:53:32;;;;;;;31.10;17.10;;;5.70;68.90;;;;;;5074142;28;20020;-73
2021/03/08 02:56:05;;;;;;;36.00;20.10;;;5.70;68.80;;;;;;5075524;28;20024;-73
2021/03/08 02:58:34;;;;;;;34.47;18.73;;;5.70;68.80;;;;;;5074203;28;20090;-74
2021/03/08 03:01:01;;;;;;;37.25;17.88;;;5.70;68.80;;;;;;5075407;28;20027;-73
2021/03/08 03:03:30;;;;;;;32.70;18.60;;;5.70;68.80;;;;;;5075115;28;20052;-74
2021/03/08 03:05:58;;;;;;;31.75;17.38;;;5.70;68.80;;;;;;5074037;28;20164;-73
2021/03/08 03:08:26;;;;;;;33.58;18.98;;;5.70;68.80;;;;;;5075317;28;20437;-73
2021/03/08 03:10:52;;;;;;;31.58;17.17;;;5.80;68.80;;;;;;5073793;28;20028;-74
2021/03/08 03:13:18;;;;;;;33.42;18.67;;;5.80;68.80;;;;;;5073988;28;20029;-73
2021/03/08 03:15:44;;;;;;;34.60;18.58;;;5.80;68.80;;;;;;5075354;28;20032;-73
2021/03/08 03:18:11;;;;;;;33.03;18.85;;;5.80;68.80;;;;;;5073830;28;20086;-73
2021/03/08 03:20:37;;;;;;;37.40;20.52;;;5.80;68.80;;;;;;5075124;28;20467;-73
2021/03/08 03:23:05;;;;;;;33.78;19.55;;;5.80;68.90;;;;;;5073734;28;20052;-73
2021/03/08 03:25:31;;;;;;;33.25;19.80;;;5.70;68.90;;;;;;5073641;28;20542;-73
2021/03/08 03:27:58;;;;;;;38.15;21.50;;;5.70;69.00;;;;;;5074916;28;20031;-73
2021/03/08 03:30:26;;;;;;;40.25;21.20;;;5.70;69.10;;;;;;5074835;28;20017;-73
2021/03/08 03:32:52;;;;;;;39.92;21.15;;;5.70;69.10;;;;;;5073315;28;20369;-73
2021/03/08 03:35:21;;;;;;;39.55;21.33;;;5.60;69.20;;;;;;5075134;28;20029;-73
2021/03/08 03:37:48;;;;;;;36.95;20.20;;;5.60;69.30;;;;;;5074914;28;20033;-73
2021/03/08 03:40:16;;;;;;;36.72;20.88;;;5.60;69.40;;;;;;5075161;28;20037;-73
2021/03/08 03:42:44;;;;;;;39.95;22.63;;;5.50;69.40;;;;;;5073139;28;20400;-73
2021/03/08 03:45:11;;;;;;;36.50;20.08;;;5.50;69.40;;;;;;5073224;28;20129;-73
2021/03/08 03:47:38;;;;;;;36.40;20.08;;;5.60;69.50;;;;;;5072484;28;20033;-73
2021/03/08 03:50:08;;;;;;;32.95;18.50;;;5.60;69.50;;;;;;5072470;28;20045;-73
2021/03/08 03:52:35;;;;;;;37.40;19.92;;;5.60;69.50;;;;;;5055481;28;20040;-73
2021/03/08 03:55:02;;;;;;;37.03;19.75;;;5.60;69.50;;;;;;5072280;28;20556;-74
2021/03/08 03:57:37;;;;;;;33.90;20.13;;;5.60;69.60;;;;;;5072211;28;20083;-73
2021/03/08 04:00:06;;;;;;;37.58;21.10;;;5.60;69.60;;;;;;5055613;28;20036;-73
2021/03/08 04:02:39;;;;;;;37.03;20.75;;;5.60;69.60;;;;;;5072055;28;20225;-73
2021/03/08 04:05:05;;;;;;;38.97;21.50;;;5.60;69.60;;;;;;5054822;28;20414;-73
2021/03/08 04:07:38;;;;;;;38.63;20.98;;;5.60;69.60;;;;;;5055370;28;20076;-73
2021/03/08 04:10:05;;;;;;;34.08;19.98;;;5.60;69.70;;;;;;5055248;28;20029;-73
2021/03/08 04:12:34;;;;;;;38.67;21.35;;;5.50;69.80;;;;;;5071829;28;20049;-73
2021/03/08 04:15:08;;;;;;;41.83;21.33;;;5.50;69.90;;;;;;5055060;28;20433;-73
2021/03/08 04:17:40;;;;;;;36.25;20.50;;;5.50;70.00;;;;;;5055091;28;20454;-74
2021/03/08 04:20:10;;;;;;;38.38;20.40;;;5.50;70.00;;;;;;5073978;28;20529;-73
2021/03/08 04:22:37;;;;;;;35.83;20.40;;;5.50;70.00;;;;;;5073828;28;20476;-72
2021/03/08 04:25:04;;;;;;;35.20;20.50;;;5.50;70.00;;;;;;5072509;28;20117;-73
2021/03/08 04:27:33;;;;;;;34.60;19.80;;;5.50;70.00;;;;;;5074137;28;20052;-73
2021/03/08 04:29:59;;;;;;;33.08;19.67;;;5.50;70.00;;;;;;5072379;28;20036;-73
2021/03/08 04:32:26;;;;;;;37.17;19.15;;;5.60;70.10;;;;;;5073746;28;20123;-73
2021/03/08 04:34:52;;;;;;;34.85;19.33;;;5.60;70.00;;;;;;5072222;28;20436;-73
2021/03/08 04:37:18;;;;;;;32.50;19.08;;;5.60;70.10;;;;;;5073717;28;20440;-73
2021/03/08 04:39:45;;;;;;;37.22;20.05;;;5.60;70.00;;;;;;5073510;28;20025;-73
2021/03/08 04:42:14;;;;;;;39.55;20.48;;;5.70;70.10;;;;;;5072033;28;20127;-73
2021/03/08 04:44:41;;;;;;;32.00;18.83;;;5.60;70.00;;;;;;5071973;28;20036;-73
2021/03/08 04:47:08;;;;;;;34.28;19.83;;;5.60;70.10;;;;;;5072071;28;20036;-73
2021/03/08 04:49:35;;;;;;;38.15;20.35;;;5.60;70.10;;;;;;5073515;28;20036;-73
2021/03/08 04:52:01;;;;;;;39.85;21.48;;;5.60;70.10;;;;;;5071834;28;20033;-73
2021/03/08 04:54:28;;;;;;;37.28;20.92;;;5.60;70.20;;;;;;5073283;28;20048;-73
2021/03/08 04:56:55;;;;;;;33.75;19.60;;;5.60;70.20;;;;;;5073192;28;20472;-73
2021/03/08 04:59:23;;;;;;;35.03;20.05;;;5.60;70.30;;;;;;5071912;28;20365;-73
2021/03/08 05:01:50;;;;;;;43.95;22.90;;;5.60;70.30;;;;;;5073058;28;20028;-73
2021/03/08 05:04:18;;;;;;;35.45;18.85;;;5.60;70.30;;;;;;5072937;28;20060;-73
2021/03/08 05:06:44;;;;;;;36.05;20.50;;;5.60;70.40;;;;;;5071693;28;20025;-73
2021/03/08 05:09:13;;;;;;;36.83;19.77;;;5.50;70.40;;;;;;5071807;28;20032;-73
2021/03/08 05:11:40;;;;;;;34.33;20.48;;;5.60;70.50;;;;;;5071577;28;20036;-73
2021/03/08 05:14:10;;;;;;;35.90;20.30;;;5.50;70.50;;;;;;5072937;28;20392;-73
2021/03/08 05:16:40;;;;;;;35.28;19.50;;;5.60;70.60;;;;;;5072037;28;20028;-73
2021/03/08 05:19:07;;;;;;;34.92;20.10;;;5.50;70.50;;;;;;5071635;28;20024;-73
2021/03/08 05:21:34;;;;;;;37.17;19.92;;;5.50;70.50;;;;;;5072783;28;20033;-73
2021/03/08 05:24:01;;;;;;;35.17;18.48;;;5.60;70.60;;;;;;5071479;28;20046;-73
2021/03/08 05:26:28;;;;;;;35.85;20.83;;;5.50;70.60;;;;;;5071519;28;20066;-73
2021/03/08 05:28:54;;;;;;;34.97;19.75;;;5.50;70.70;;;;;;5072698;28;20025;-73
2021/03/08 05:31:22;;;;;;;34.55;20.38;;;5.50;70.70;;;;;;5071401;28;20035;-75
2021/03/08 05:33:51;;;;;;;36.63;19.73;;;5.50;70.70;;;;;;5072597;28;20036;-73
2021/03/08 05:36:18;;;;;;;36.63;20.45;;;5.50;70.70;;;;;;5072886;28;20020;-73
2021/03/08 05:38:45;;;;;;;35.10;20.25;;;5.50;70.80;;;;;;5072592;28;20413;-73
2021/03/08 05:41:33;;;;;;;42.80;20.67;;;5.50;70.80;;;;;;5072579;28;20054;-73
2021/03/08 05:44:04;;;;;;;33.92;18.88;;;5.60;70.80;;;;;;5071307;28;20371;-73
2021/03/08 05:46:54;;;;;;;40.22;22.83;;;5.60;70.80;;;;;;5072640;28;20048;-73
2021/03/08 05:49:38;;;;;;;35.80;20.50;;;5.60;70.90;;;;;;5071430;28;20484;-73
2021/03/08 05:52:28;;;;;;;35.92;20.38;;;5.60;70.80;;;;;;5071301;28;20039;-73
2021/03/08 05:55:21;;;;;;;43.40;21.88;;;5.50;70.80;;;;;;5072790;28;20481;-73
2021/03/08 05:58:18;;;;;;;34.75;19.70;;;5.60;70.80;;;;;;5072631;28;20029;-74
2021/03/08 06:01:06;;;;;;;30.70;18.13;;;5.60;70.90;;;;;;5072413;28;20036;-73
2021/03/08 06:04:04;;;;;;;32.90;19.88;;;5.60;70.90;;;;;;5071051;28;20035;-73
2021/03/08 06:07:06;;;;;;;34.72;20.58;;;5.60;70.80;;;;;;5072821;28;20036;-73
2021/03/08 06:09:56;;;;;;;36.85;19.13;;;5.60;70.80;;;;;;5072470;28;20039;-73
2021/03/08 06:12:31;;;;;;;37.45;21.38;;;5.60;70.80;;;;;;5068265;28;20048;-73
2021/03/08 06:14:58;;;;;;;33.25;19.20;;;5.60;70.90;;;;;;5070888;28;20032;-74
2021/03/08 06:17:23;;;;;;;33.30;20.15;;;5.60;70.80;;;;;;5072229;28;20476;-73
2021/03/08 06:19:52;;;;;;;34.08;19.77;;;5.60;70.80;;;;;;5072667;28;20035;-73
2021/03/08 06:22:17;;;;;;;35.30;20.40;;;5.60;70.80;;;;;;5072219;28;20059;-73
2021/03/08 06:24:45;;;;;;;34.53;19.92;;;5.70;70.90;;;;;;5070974;28;20070;-74
2021/03/08 06:27:15;;;;;;;36.22;19.10;;;5.70;70.90;;;;;;5071783;28;20401;-73
2021/03/08 06:29:42;;;;;;;42.05;22.50;;;5.70;70.90;;;;;;5075783;28;20034;-73
2021/03/08 06:32:09;;;;;;;34.67;19.55;;;5.70;70.90;;;;;;5074549;28;20035;-73
2021/03/08 06:34:35;;;;;;;32.80;19.33;;;5.70;70.90;;;;;;5075915;28;20427;-73
2021/03/08 06:37:10;;;;;;;35.72;19.98;;;5.70;70.90;;;;;;5074445;28;20097;-74
2021/03/08 06:39:43;;;;;;;35.08;20.35;;;5.80;70.90;;;;;;5074574;28;20074;-73
2021/03/08 06:42:10;;;;;;;;;;;5.70;70.90;;;;;;5074898;28;20020;-73
2021/03/08 06:44:36;;;;;;;35.30;19.83;;;5.70;70.90;;;;;;5074214;28;19905;-74
2021/03/08 06:47:05;;;;;;;35.10;20.05;;;5.70;70.90;;;;;;5074217;28;20424;-73
2021/03/08 06:49:31;;;;;;;36.17;19.55;;;5.70;70.90;;;;;;5075352;28;20024;-73
2021/03/08 06:52:03;;;;;;;37.30;19.55;;;5.70;70.90;;;;;;5075428;28;20071;-73
2021/03/08 06:54:30;;;;;;;35.10;19.77;;;5.80;71.00;;;;;;5075393;28;20172;-73
2021/03/08 06:56:55;;;;;;;34.50;20.17;;;5.80;71.00;;;;;;5075540;28;20060;-73
2021/03/08 06:59:21;;;;;;;31.15;18.75;;;5.80;70.90;;;;;;5075362;28;20033;-73
2021/03/08 07:01:50;;;;;;;34.30;20.33;;;5.90;71.00;;;;;;5075515;28;20369;-74
2021/03/08 07:04:17;;;;;;;39.00;19.48;;;5.90;70.90;;;;;;5073665;28;20044;-73
2021/03/08 07:06:59;;;;;;;32.40;18.83;;;5.90;70.80;;;;;;5075149;28;20050;-73
2021/03/08 07:09:25;;;;;;;35.03;20.35;;;6.00;70.80;;;;;;5074929;28;20033;-73
2021/03/08 07:12:11;;;;;;;33.13;19.42;;;6.00;70.70;;;;;;5073859;28;20020;-73
2021/03/08 07:14:38;;;;;;;33.20;19.30;;;6.10;70.70;;;;;;5075297;28;20035;-73
2021/03/08 07:17:29;;;;;;;33.85;18.75;;;6.10;70.60;;;;;;5073603;28;20119;-73
2021/03/08 07:23:24;;;;;;;33.10;18.75;;;6.10;70.50;;;;;;5075074;28;20031;-73
2021/03/08 07:26:07;;;;;;;32.90;18.70;;;6.10;70.40;;;;;;5073621;28;20016;-72
2021/03/08 07:28:33;;;;;;;33.22;19.33;;;6.20;71.00;;;;;;5073634;28;20107;-71
2021/03/08 07:30:58;;;;;;;34.63;19.80;;;6.20;70.50;;;;;;5073476;28;20105;-71
2021/03/08 07:33:24;;;;;;;36.53;20.08;;;6.20;70.50;;;;;;5073472;28;20021;-71
2021/03/08 07:35:53;;;;;;;38.03;22.05;;;6.20;70.40;;;;;;5073504;28;20029;-71
2021/03/08 07:38:31;;;;;;;37.75;21.70;;;6.30;70.30;;;;;;5074353;28;20032;-71
2021/03/08 07:41:16;;;;;;;34.13;20.75;;;6.30;70.40;;;;;;5073593;28;20025;-72
2021/03/08 07:43:43;;;;;;;32.10;19.23;;;6.30;70.30;;;;;;5074651;28;20032;-71
2021/03/08 07:46:30;;;;;;;31.73;18.73;;;6.40;70.30;;;;;;5074602;28;20376;-72
2021/03/08 07:48:57;;;;;;;30.55;17.60;;;6.40;70.20;;;;;;5073283;28;20396;-72
2021/03/08 07:51:24;;;;;;;37.35;21.10;;;6.50;70.10;;;;;;5073123;28;20099;-71
2021/03/08 07:53:59;;;;;;;35.30;21.42;;;6.50;70.00;;;;;;5073242;28;20082;-70
2021/03/08 07:56:25;;;;;;;37.30;20.98;;;6.60;69.90;;;;;;5074381;28;20016;-70
2021/03/08 07:58:52;;;;;;;38.28;21.77;;;6.60;69.80;;;;;;5072903;28;20115;-70
2021/03/08 08:01:19;;;;;;;39.15;21.52;;;6.60;69.80;;;;;;5072893;28;20025;-72
2021/03/08 08:03:44;;;;;;;38.58;22.02;;;6.70;69.70;;;;;;5072709;28;20522;-71
2021/03/08 08:06:11;;;;;;;39.33;21.70;;;6.70;69.60;;;;;;5074014;28;20115;-71
2021/03/08 08:08:39;;;;;;;38.70;22.55;;;6.80;69.60;;;;;;5074246;28;20067;-71
2021/03/08 08:11:06;;;;;;;35.97;21.52;;;6.80;69.50;;;;;;5074288;28;20028;-72
2021/03/08 08:13:45;;;;;;;37.22;21.92;;;6.80;69.40;;;;;;5072775;28;20086;-72
2021/03/08 08:16:12;;;;;;;39.05;21.75;;;6.80;69.40;;;;;;5074001;28;20082;-72
2021/03/08 08:18:43;;;;;;;38.97;21.58;;;6.80;69.40;;;;;;5073846;28;20028;-71
2021/03/08 08:21:17;;;;;;;35.72;20.92;;;6.90;69.40;;;;;;5073717;28;20081;-71
2021/03/08 08:23:46;;;;;;;34.17;20.80;;;6.90;69.30;;;;;;5072122;28;20117;-71
2021/03/08 08:26:19;;;;;;;36.08;21.58;;;7.00;69.20;;;;;;5073496;28;20503;-72
2021/03/08 08:28:46;;;;;;;40.88;22.05;;;7.10;69.30;;;;;;5073641;28;20028;-72
2021/03/08 08:31:13;;;;;;;43.00;23.13;;;7.00;69.00;;;;;;5073591;28;20094;-71
2021/03/08 08:33:39;;;;;;;37.15;22.27;;;7.00;69.00;;;;;;5073476;28;20032;-71
2021/03/08 08:36:19;;;;;;;40.58;22.50;;;7.00;69.00;;;;;;5074016;28;20020;-71
2021/03/08 08:38:54;;;;;;;39.90;21.48;;;6.90;69.20;;;;;;5073305;28;20036;-71
2021/03/08 08:41:29;;;;;;;35.40;21.90;;;6.90;69.30;;;;;;5073305;28;20033;-72
2021/03/08 08:44:07;;;;;;;47.30;25.30;;;6.90;69.40;;;;;;5073394;28;20051;-71
2021/03/08 08:46:33;;;;;;;40.08;23.23;;;6.90;69.50;;;;;;5073792;28;20040;-72
2021/03/08 08:49:19;;;;;;;39.67;23.13;;;6.90;69.60;;;;;;5073241;28;20070;-73
2021/03/08 08:51:50;;;;;;;35.22;21.70;;;7.00;69.60;;;;;;5071681;28;20025;-72
2021/03/08 08:54:28;;;;;;;42.63;23.63;;;6.90;69.30;;;;;;5073084;28;20029;-72
2021/03/08 08:57:00;;;;;;;37.28;22.20;;;7.00;69.60;;;;;;5071608;28;20040;-72
2021/03/08 08:59:27;;;;;;;39.35;21.75;;;7.00;69.50;;;;;;5071556;28;20123;-73
2021/03/08 09:02:12;;;;;;;38.33;23.02;;;7.00;69.50;;;;;;5072814;28;20499;-73
2021/03/08 09:04:37;;;;;;;38.33;22.83;;;7.00;69.50;;;;;;5071281;28;20033;-73
2021/03/08 09:07:24;;;;;;;35.97;21.35;;;7.00;69.50;;;;;;5071783;28;20027;-73
2021/03/08 09:09:50;;;;;;;35.60;20.52;;;7.10;69.40;;;;;;5071791;28;20025;-73
2021/03/08 09:12:37;;;;;;;36.33;21.42;;;7.20;69.30;;;;;;5073188;28;20031;-74
2021/03/08 09:15:11;;;;;;;39.22;22.15;;;7.20;69.20;;;;;;5071797;28;20060;-74
2021/03/08 09:17:40;;;;;;;37.72;22.75;;;7.30;69.10;;;;;;5071728;28;20059;-74
2021/03/08 09:20:08;;;;;;;39.35;22.50;;;7.30;68.90;;;;;;5071647;28;20040;-74
2021/03/08 09:22:52;;;;;;;38.05;22.33;;;7.30;68.90;;;;;;5072809;28;20036;-74
2021/03/08 09:25:29;;;;;;;39.70;22.42;;;7.40;68.90;;;;;;5071421;28;20021;-74
2021/03/08 09:27:57;;;;;;;38.67;22.67;;;7.40;68.70;;;;;;5072800;28;20028;-74
2021/03/08 09:30:24;;;;;;;32.50;19.88;;;7.50;68.80;;;;;;5071515;28;20033;-74
2021/03/08 09:33:05;;;;;;;35.13;20.55;;;7.50;68.60;;;;;;5071530;28;20036;-73
2021/03/08 09:35:33;;;;;;;40.03;21.73;;;7.60;68.70;;;;;;5072853;28;20388;-75
2021/03/08 09:38:02;;;;;;;36.08;21.30;;;7.70;69.00;;;;;;5071459;28;20029;-73
2021/03/08 09:40:30;;;;;;;38.70;20.90;;;7.70;68.20;;;;;;5071802;28;20032;-73
2021/03/08 09:42:57;;;;;;;38.30;22.00;;;7.90;68.20;;;;;;5073087;28;20119;-74
2021/03/08 09:45:34;;;;;;;35.88;21.55;;;8.00;68.10;;;;;;5072619;28;20025;-74
2021/03/08 09:48:03;;;;;;;38.50;20.92;;;8.00;67.80;;;;;;5071394;28;20021;-73
2021/03/08 09:50:32;;;;;;;33.88;20.92;;;8.10;67.60;;;;;;5072967;28;20121;-74
2021/03/08 09:52:59;;;;;;;37.40;21.67;;;8.20;67.40;;;;;;5071318;28;20116;-74
2021/03/08 09:55:27;;;;;;;39.60;22.38;;;8.20;67.30;;;;;;5072642;28;20028;-74
2021/03/08 09:57:54;;;;;;;40.58;22.45;;;8.20;67.40;;;;;;5072666;28;20025;-74
2021/03/08 10:00:28;;;;;;;36.90;20.88;;;8.20;67.30;;;;;;5071266;28;20021;-74
2021/03/08 10:02:58;;;;;;;40.47;21.80;;;8.20;67.20;;;;;;5073208;28;20032;-74
2021/03/08 10:05:40;;;;;;;40.60;22.05;;;8.20;67.30;;;;;;5074909;28;20110;-74
2021/03/08 10:08:07;;;;;;;36.15;20.63;;;8.20;67.40;;;;;;5075074;28;20025;-74
2021/03/08 10:10:38;;;;;;;37.50;20.67;;;8.30;67.40;;;;;;5075135;28;20020;-74
2021/03/08 10:13:04;;;;;;;34.85;19.98;;;8.30;67.40;;;;;;5074826;28;20115;-73
2021/03/08 10:15:50;;;;;;;31.92;19.08;;;8.40;67.40;;;;;;5074746;28;20036;-74
2021/03/08 10:18:18;;;;;;;36.10;20.45;;;8.50;67.40;;;;;;5074477;28;20511;-74
2021/03/08 10:20:56;;;;;;;34.20;20.45;;;8.50;67.30;;;;;;5074542;28;20025;-73
2021/03/08 10:23:27;;;;;;;34.08;20.05;;;8.50;67.10;;;;;;5074545;28;20495;-73
2021/03/08 10:26:02;;;;;;;35.22;19.60;;;8.40;67.20;;;;;;5074569;28;20474;-74
2021/03/08 10:28:45;;;;;;;33.00;20.33;;;8.40;67.40;;;;;;5074486;28;20118;-74
2021/03/08 10:31:19;;;;;;;32.63;19.30;;;8.50;67.50;;;;;;5074527;28;20077;-74
2021/03/08 10:34:10;;;;;;;28.88;17.88;;;8.50;67.50;;;;;;5074304;28;20025;-73
2021/03/08 10:36:38;;;;;;;37.15;19.77;;;8.60;67.40;;;;;;5075571;28;20093;-73
2021/03/08 10:39:09;;;;;;;36.13;20.17;;;8.70;67.30;;;;;;5075793;28;20025;-74
2021/03/08 10:41:36;;;;;;;31.70;18.38;;;8.70;67.20;;;;;;5074348;28;20029;-73
2021/03/08 10:44:05;;;;;;;34.05;19.90;;;8.80;67.10;;;;;;5074396;28;20166;-73
2021/03/08 10:46:34;;;;;;;30.83;18.30;;;8.80;66.80;;;;;;5075608;28;20154;-73
2021/03/08 10:49:03;;;;;;;32.40;18.95;;;8.90;66.90;;;;;;5075539;28;20074;-74
2021/03/08 10:51:29;;;;;;;33.60;20.80;;;9.00;66.60;;;;;;5075518;28;20035;-75
2021/03/08 10:53:57;;;;;;;31.88;19.05;;;9.20;66.40;;;;;;5075369;28;20103;-74
2021/03/08 10:56:23;;;;;;;30.60;19.48;;;9.20;66.20;;;;;;5074004;28;20024;-74
2021/03/08 10:58:49;;;;;;;30.38;17.70;;;9.40;66.00;;;;;;5075421;28;20013;-73
2021/03/08 11:01:15;;;;;;;28.77;17.65;;;9.50;66.00;;;;;;5073918;28;20408;-73
2021/03/08 11:03:42;;;;;;;32.25;18.58;;;9.50;65.70;;;;;;5074037;28;20021;-74
2021/03/08 11:06:12;;;;;;;32.63;18.05;;;9.60;65.60;;;;;;5073864;28;20484;-73
2021/03/08 11:08:40;;;;;;;29.17;17.23;;;9.50;65.70;;;;;;5073937;28;20020;-73
2021/03/08 11:11:23;;;;;;;27.95;15.95;;;9.50;65.80;;;;;;5073900;28;20020;-73
2021/03/08 11:13:52;;;;;;;28.85;18.63;;;9.50;65.90;;;;;;5072497;28;20017;-73
2021/03/08 11:16:18;;;;;;;27.77;15.93;;;9.50;66.00;;;;;;5075236;28;20078;-74
2021/03/08 11:18:44;;;;;;;25.02;15.32;;;9.60;66.00;;;;;;5073487;28;20025;-73
2021/03/08 11:21:28;;;;;;;24.33;15.00;;;9.60;65.90;;;;;;5074930;28;20030;-74
2021/03/08 11:24:13;;;;;;;27.77;16.63;;;9.80;65.80;;;;;;5073463;28;20082;-75
2021/03/08 11:26:39;;;;;;;28.25;16.52;;;9.80;65.30;;;;;;5073442;28;20075;-74
2021/03/08 11:29:05;;;;;;;25.83;16.52;;;9.80;65.10;;;;;;5073450;28;20017;-74
2021/03/08 11:31:30;;;;;;;29.02;18.13;;;9.80;65.90;;;;;;5074741;28;20028;-74
2021/03/08 11:33:56;;;;;;;28.58;18.30;;;9.80;65.20;;;;;;5074737;28;20418;-74
2021/03/08 11:36:35;;;;;;;31.30;18.65;;;9.80;65.30;;;;;;5074712;28;20035;-74
2021/03/08 11:39:05;;;;;;;27.58;17.20;;;9.90;65.00;;;;;;5073426;28;20024;-73
2021/03/08 11:41:33;;;;;;;30.50;18.92;;;9.90;65.00;;;;;;5073351;28;20024;-73
2021/03/08 11:43:59;;;;;;;34.13;20.15;;;9.90;64.90;;;;;;5073333;28;20035;-74
2021/03/08 11:46:25;;;;;;;31.52;17.85;;;9.90;64.90;;;;;;5073108;28;20052;-73
2021/03/08 11:49:00;;;;;;;30.52;18.70;;;9.90;64.90;;;;;;5074581;28;20035;-73
2021/03/08 11:51:26;;;;;;;30.13;18.60;;;10.00;64.80;;;;;;5074809;28;20368;-73
2021/03/08 11:53:51;;;;;;;29.50;17.98;;;10.00;64.70;;;;;;5074598;28;20028;-73
2021/03/08 11:56:17;;;;;;;27.38;18.02;;;10.10;64.40;;;;;;5074433;28;20178;-73
2021/03/08 11:58:43;;;;;;;31.52;17.38;;;10.00;64.30;;;;;;5072976;28;20024;-73
2021/03/08 12:01:08;;;;;;;29.35;17.92;;;10.00;64.10;;;;;;5072968;28;20480;-73
2021/03/08 12:03:34;;;;;;;30.25;18.27;;;10.00;64.30;;;;;;5074138;28;20033;-73
2021/03/08 12:06:00;;;;;;;26.80;17.15;;;9.90;64.30;;;;;;5072575;28;20033;-74
2021/03/08 12:08:26;;;;;;;30.63;18.17;;;9.90;64.30;;;;;;5074053;28;20140;-74
2021/03/08 12:10:52;;;;;;;33.08;18.60;;;9.90;64.30;;;;;;5072871;28;20035;-74
2021/03/08 12:13:17;;;;;;;29.42;18.50;;;9.90;64.30;;;;;;5074111;28;20492;-74
2021/03/08 12:15:43;;;;;;;31.42;18.75;;;9.80;64.50;;;;;;5072785;28;20027;-74
2021/03/08 12:18:08;;;;;;;28.40;18.13;;;9.80;65.20;;;;;;5073124;28;20387;-74
2021/03/08 12:20:34;;;;;;;31.52;18.85;;;9.70;64.60;;;;;;5072760;28;20422;-74
2021/03/08 12:23:00;;;;;;;29.23;18.52;;;9.70;64.60;;;;;;5074069;28;20032;-75
2021/03/08 12:25:26;;;;;;;30.35;18.45;;;9.70;64.50;;;;;;5072163;28;20055;-74
2021/03/08 12:27:51;;;;;;;30.20;17.70;;;9.70;64.50;;;;;;5076004;28;20036;-75
2021/03/08 12:30:18;;;;;;;30.02;18.80;;;9.70;64.50;;;;;;5073683;28;20021;-74
2021/03/08 12:32:43;;;;;;;32.40;19.90;;;9.80;64.60;;;;;;5072451;28;20101;-75
2021/03/08 12:35:10;;;;;;;30.20;18.33;;;9.80;64.50;;;;;;5072350;28;20122;-74
2021/03/08 12:37:38;;;;;;;28.27;17.80;;;9.90;64.40;;;;;;5072474;28;20028;-74
2021/03/08 12:40:04;;;;;;;30.90;17.52;;;9.90;64.40;;;;;;5072656;28;20031;-74
2021/03/08 12:42:30;;;;;;;29.63;17.95;;;10.00;64.30;;;;;;5073588;28;20025;-75
2021/03/08 12:44:56;;;;;;;28.50;18.00;;;10.00;64.30;;;;;;5071884;28;20166;-72
2021/03/08 12:47:21;;;;;;;26.98;17.00;;;10.10;64.10;;;;;;5071907;28;20032;-74
2021/03/08 12:49:47;;;;;;;28.33;17.13;;;10.20;64.10;;;;;;5071838;28;20090;-75
2021/03/08 12:52:13;;;;;;;27.98;17.35;;;10.20;63.80;;;;;;5072945;28;20039;-75
2021/03/08 12:54:38;;;;;;;28.95;18.10;;;10.30;63.80;;;;;;5071809;28;20024;-74